sensor_id;sensor_type;location;lat;lon;timestamp;P1;durP1;ratioP1;P2;durP2;ratioP2
75542;SDS011;64129;53.508;10.476;2023-07-29T00:00:01;3.38;;;2.72;;
75542;SDS011;64129;53.508;10.476;2023-07-29T00:02:37;3.55;;;2.50;;
75542;SDS011;64129;53.508;10.476;2023-07-29T00:05:04;3.03;;;2.78;;
75542;SDS011;64129;53.508;10.476;2023-07-29T00:07:31;4.68;;;2.85;;
75542;SDS011;64129;53.508;10.476;2023-07-29T00:09:57;3.17;;;2.88;;
75542;SDS011;64129;53.508;10.476;2023-07-29T00:12:24;2.88;;;2.67;;
75542;SDS011;64129;53.508;10.476;2023-07-29T00:14:51;3.03;;;2.70;;
75542;SDS011;64129;53.508;10.476;2023-07-29T00:17:18;4.47;;;2.60;;
75542;SDS011;64129;53.508;10.476;2023-07-29T00:19:46;3.40;;;2.90;;
75542;SDS011;64129;53.508;10.476;2023-07-29T00:22:13;3.20;;;2.90;;
75542;SDS011;64129;53.508;10.476;2023-07-29T00:24:39;3.55;;;3.25;;
75542;SDS011;64129;53.508;10.476;2023-07-29T00:27:07;3.70;;;2.60;;
75542;SDS011;64129;53.508;10.476;2023-07-29T00:29:33;3.45;;;3.10;;
75542;SDS011;64129;53.508;10.476;2023-07-29T00:32:00;5.47;;;2.95;;
75542;SDS011;64129;53.508;10.476;2023-07-29T00:34:26;3.10;;;2.80;;
75542;SDS011;64129;53.508;10.476;2023-07-29T00:36:53;3.13;;;2.90;;
75542;SDS011;64129;53.508;10.476;2023-07-29T00:39:19;4.30;;;3.67;;
75542;SDS011;64129;53.508;10.476;2023-07-29T00:41:46;3.25;;;2.90;;
75542;SDS011;64129;53.508;10.476;2023-07-29T00:44:13;4.35;;;3.08;;
75542;SDS011;64129;53.508;10.476;2023-07-29T00:46:40;5.05;;;3.55;;
75542;SDS011;64129;53.508;10.476;2023-07-29T00:51:34;3.97;;;3.58;;
75542;SDS011;64129;53.508;10.476;2023-07-29T00:54:01;4.00;;;3.60;;
75542;SDS011;64129;53.508;10.476;2023-07-29T00:56:28;4.13;;;3.72;;
75542;SDS011;64129;53.508;10.476;2023-07-29T00:58:54;4.82;;;4.32;;
75542;SDS011;64129;53.508;10.476;2023-07-29T01:01:25;6.97;;;4.55;;
75542;SDS011;64129;53.508;10.476;2023-07-29T01:03:52;6.03;;;4.55;;
75542;SDS011;64129;53.508;10.476;2023-07-29T01:06:23;5.68;;;4.80;;
75542;SDS011;64129;53.508;10.476;2023-07-29T01:09:30;5.95;;;5.22;;
75542;SDS011;64129;53.508;10.476;2023-07-29T01:12:24;6.90;;;4.93;;
75542;SDS011;64129;53.508;10.476;2023-07-29T01:15:16;5.07;;;4.55;;
75542;SDS011;64129;53.508;10.476;2023-07-29T01:17:59;5.18;;;4.68;;
75542;SDS011;64129;53.508;10.476;2023-07-29T01:20:32;6.15;;;4.57;;
75542;SDS011;64129;53.508;10.476;2023-07-29T01:22:59;6.32;;;4.95;;
75542;SDS011;64129;53.508;10.476;2023-07-29T01:25:26;8.77;;;5.25;;
75542;SDS011;64129;53.508;10.476;2023-07-29T01:27:53;4.95;;;4.55;;
75542;SDS011;64129;53.508;10.476;2023-07-29T01:30:22;5.93;;;4.93;;
75542;SDS011;64129;53.508;10.476;2023-07-29T01:35:36;4.93;;;4.43;;
75542;SDS011;64129;53.508;10.476;2023-07-29T01:38:29;6.00;;;4.82;;
75542;SDS011;64129;53.508;10.476;2023-07-29T01:41:01;6.63;;;5.10;;
75542;SDS011;64129;53.508;10.476;2023-07-29T01:43:30;5.88;;;5.28;;
75542;SDS011;64129;53.508;10.476;2023-07-29T01:45:57;6.63;;;5.40;;
75542;SDS011;64129;53.508;10.476;2023-07-29T01:48:24;6.25;;;5.35;;
75542;SDS011;64129;53.508;10.476;2023-07-29T01:50:51;5.75;;;4.70;;
75542;SDS011;64129;53.508;10.476;2023-07-29T01:53:17;5.28;;;4.55;;
75542;SDS011;64129;53.508;10.476;2023-07-29T01:55:44;5.55;;;5.05;;
75542;SDS011;64129;53.508;10.476;2023-07-29T01:58:11;8.15;;;4.90;;
75542;SDS011;64129;53.508;10.476;2023-07-29T02:00:38;6.70;;;5.13;;
75542;SDS011;64129;53.508;10.476;2023-07-29T02:03:06;6.95;;;5.38;;
75542;SDS011;64129;53.508;10.476;2023-07-29T02:05:32;7.15;;;5.55;;
75542;SDS011;64129;53.508;10.476;2023-07-29T02:07:59;5.70;;;5.10;;
75542;SDS011;64129;53.508;10.476;2023-07-29T02:10:26;6.60;;;5.90;;
75542;SDS011;64129;53.508;10.476;2023-07-29T02:12:53;5.55;;;4.72;;
75542;SDS011;64129;53.508;10.476;2023-07-29T02:15:19;5.45;;;4.95;;
75542;SDS011;64129;53.508;10.476;2023-07-29T02:17:46;6.72;;;5.43;;
75542;SDS011;64129;53.508;10.476;2023-07-29T02:20:12;6.38;;;5.53;;
75542;SDS011;64129;53.508;10.476;2023-07-29T02:22:39;6.75;;;5.13;;
75542;SDS011;64129;53.508;10.476;2023-07-29T02:25:06;5.90;;;5.30;;
75542;SDS011;64129;53.508;10.476;2023-07-29T02:27:32;7.32;;;5.75;;
75542;SDS011;64129;53.508;10.476;2023-07-29T02:29:59;7.72;;;5.20;;
75542;SDS011;64129;53.508;10.476;2023-07-29T02:32:26;6.55;;;5.20;;
75542;SDS011;64129;53.508;10.476;2023-07-29T02:34:52;6.25;;;5.38;;
75542;SDS011;64129;53.508;10.476;2023-07-29T02:37:19;6.80;;;4.90;;
75542;SDS011;64129;53.508;10.476;2023-07-29T02:39:46;5.55;;;5.05;;
75542;SDS011;64129;53.508;10.476;2023-07-29T02:42:12;8.43;;;4.93;;
75542;SDS011;64129;53.508;10.476;2023-07-29T02:44:40;7.32;;;5.00;;
75542;SDS011;64129;53.508;10.476;2023-07-29T02:47:06;6.70;;;4.80;;
75542;SDS011;64129;53.508;10.476;2023-07-29T02:49:33;6.88;;;5.18;;
75542;SDS011;64129;53.508;10.476;2023-07-29T02:51:59;5.78;;;4.93;;
75542;SDS011;64129;53.508;10.476;2023-07-29T02:54:26;5.90;;;4.85;;
75542;SDS011;64129;53.508;10.476;2023-07-29T02:56:53;6.32;;;5.40;;
75542;SDS011;64129;53.508;10.476;2023-07-29T02:59:19;5.25;;;4.57;;
75542;SDS011;64129;53.508;10.476;2023-07-29T03:01:46;6.18;;;5.07;;
75542;SDS011;64129;53.508;10.476;2023-07-29T03:04:13;7.88;;;5.22;;
75542;SDS011;64129;53.508;10.476;2023-07-29T03:06:39;5.50;;;4.20;;
75542;SDS011;64129;53.508;10.476;2023-07-29T03:09:06;5.68;;;5.05;;
75542;SDS011;64129;53.508;10.476;2023-07-29T03:11:32;8.05;;;5.75;;
75542;SDS011;64129;53.508;10.476;2023-07-29T03:13:59;6.63;;;4.93;;
75542;SDS011;64129;53.508;10.476;2023-07-29T03:16:28;5.65;;;5.07;;
75542;SDS011;64129;53.508;10.476;2023-07-29T03:18:56;8.25;;;6.00;;
75542;SDS011;64129;53.508;10.476;2023-07-29T03:21:23;10.02;;;6.53;;
75542;SDS011;64129;53.508;10.476;2023-07-29T03:23:50;7.07;;;5.72;;
75542;SDS011;64129;53.508;10.476;2023-07-29T03:26:17;6.72;;;6.03;;
75542;SDS011;64129;53.508;10.476;2023-07-29T03:28:43;7.00;;;5.72;;
75542;SDS011;64129;53.508;10.476;2023-07-29T03:31:10;8.65;;;6.07;;
75542;SDS011;64129;53.508;10.476;2023-07-29T03:36:04;7.22;;;5.85;;
75542;SDS011;64129;53.508;10.476;2023-07-29T03:38:31;7.93;;;6.30;;
75542;SDS011;64129;53.508;10.476;2023-07-29T03:40:59;6.65;;;5.82;;
75542;SDS011;64129;53.508;10.476;2023-07-29T03:43:25;7.47;;;6.43;;
75542;SDS011;64129;53.508;10.476;2023-07-29T03:45:54;8.27;;;6.50;;
75542;SDS011;64129;53.508;10.476;2023-07-29T03:48:21;8.40;;;6.72;;
75542;SDS011;64129;53.508;10.476;2023-07-29T03:50:48;7.45;;;6.55;;
75542;SDS011;64129;53.508;10.476;2023-07-29T03:53:14;9.32;;;6.53;;
75542;SDS011;64129;53.508;10.476;2023-07-29T03:55:41;7.15;;;6.45;;
75542;SDS011;64129;53.508;10.476;2023-07-29T04:00:35;7.60;;;5.88;;
75542;SDS011;64129;53.508;10.476;2023-07-29T04:03:02;9.70;;;6.70;;
75542;SDS011;64129;53.508;10.476;2023-07-29T04:05:29;8.40;;;6.75;;
75542;SDS011;64129;53.508;10.476;2023-07-29T04:07:55;7.43;;;6.68;;
75542;SDS011;64129;53.508;10.476;2023-07-29T04:10:22;12.68;;;8.32;;
75542;SDS011;64129;53.508;10.476;2023-07-29T04:12:49;7.68;;;6.97;;
75542;SDS011;64129;53.508;10.476;2023-07-29T04:15:15;12.02;;;7.88;;
75542;SDS011;64129;53.508;10.476;2023-07-29T04:17:42;12.85;;;7.75;;
75542;SDS011;64129;53.508;10.476;2023-07-29T04:20:10;8.70;;;7.68;;
75542;SDS011;64129;53.508;10.476;2023-07-29T04:22:36;10.63;;;8.68;;
75542;SDS011;64129;53.508;10.476;2023-07-29T04:25:03;13.70;;;10.82;;
75542;SDS011;64129;53.508;10.476;2023-07-29T04:27:31;14.20;;;10.75;;
75542;SDS011;64129;53.508;10.476;2023-07-29T04:29:57;14.05;;;10.40;;
75542;SDS011;64129;53.508;10.476;2023-07-29T04:32:24;13.13;;;10.18;;
75542;SDS011;64129;53.508;10.476;2023-07-29T04:34:52;13.85;;;10.40;;
75542;SDS011;64129;53.508;10.476;2023-07-29T04:37:18;12.93;;;9.80;;
75542;SDS011;64129;53.508;10.476;2023-07-29T04:39:45;12.90;;;10.45;;
75542;SDS011;64129;53.508;10.476;2023-07-29T04:44:39;12.55;;;9.20;;
75542;SDS011;64129;53.508;10.476;2023-07-29T04:47:08;10.77;;;9.07;;
75542;SDS011;64129;53.508;10.476;2023-07-29T04:49:34;11.75;;;10.15;;
75542;SDS011;64129;53.508;10.476;2023-07-29T04:52:01;14.73;;;11.10;;
75542;SDS011;64129;53.508;10.476;2023-07-29T04:54:27;14.68;;;10.88;;
75542;SDS011;64129;53.508;10.476;2023-07-29T04:56:54;14.50;;;9.52;;
75542;SDS011;64129;53.508;10.476;2023-07-29T04:59:20;15.23;;;10.88;;
75542;SDS011;64129;53.508;10.476;2023-07-29T05:01:47;17.60;;;12.20;;
75542;SDS011;64129;53.508;10.476;2023-07-29T05:06:41;15.60;;;11.65;;
75542;SDS011;64129;53.508;10.476;2023-07-29T05:09:15;14.25;;;10.60;;
75542;SDS011;64129;53.508;10.476;2023-07-29T05:14:11;18.23;;;12.20;;
75542;SDS011;64129;53.508;10.476;2023-07-29T05:16:38;16.98;;;11.38;;
75542;SDS011;64129;53.508;10.476;2023-07-29T05:19:05;15.15;;;11.65;;
75542;SDS011;64129;53.508;10.476;2023-07-29T05:21:32;15.98;;;12.05;;
75542;SDS011;64129;53.508;10.476;2023-07-29T05:23:59;12.70;;;10.98;;
75542;SDS011;64129;53.508;10.476;2023-07-29T05:26:26;14.00;;;10.77;;
75542;SDS011;64129;53.508;10.476;2023-07-29T05:28:52;13.35;;;11.23;;
75542;SDS011;64129;53.508;10.476;2023-07-29T05:31:19;13.75;;;11.40;;
75542;SDS011;64129;53.508;10.476;2023-07-29T05:33:47;14.55;;;12.20;;
75542;SDS011;64129;53.508;10.476;2023-07-29T05:36:14;15.38;;;11.57;;
75542;SDS011;64129;53.508;10.476;2023-07-29T05:38:41;15.82;;;11.88;;
75542;SDS011;64129;53.508;10.476;2023-07-29T05:41:08;15.10;;;11.73;;
75542;SDS011;64129;53.508;10.476;2023-07-29T05:43:34;15.82;;;12.48;;
75542;SDS011;64129;53.508;10.476;2023-07-29T05:46:01;14.35;;;12.35;;
75542;SDS011;64129;53.508;10.476;2023-07-29T05:48:28;15.15;;;11.95;;
75542;SDS011;64129;53.508;10.476;2023-07-29T05:50:54;16.00;;;12.18;;
75542;SDS011;64129;53.508;10.476;2023-07-29T05:53:21;14.82;;;12.40;;
75542;SDS011;64129;53.508;10.476;2023-07-29T05:55:48;18.70;;;13.75;;
75542;SDS011;64129;53.508;10.476;2023-07-29T05:58:15;19.02;;;14.25;;
75542;SDS011;64129;53.508;10.476;2023-07-29T06:00:41;18.98;;;14.43;;
75542;SDS011;64129;53.508;10.476;2023-07-29T06:03:08;14.35;;;12.70;;
75542;SDS011;64129;53.508;10.476;2023-07-29T06:05:35;15.60;;;13.60;;
75542;SDS011;64129;53.508;10.476;2023-07-29T06:08:02;17.05;;;14.27;;
75542;SDS011;64129;53.508;10.476;2023-07-29T06:10:28;15.23;;;13.43;;
75542;SDS011;64129;53.508;10.476;2023-07-29T06:12:55;19.00;;;15.23;;
75542;SDS011;64129;53.508;10.476;2023-07-29T06:15:21;25.25;;;17.15;;
75542;SDS011;64129;53.508;10.476;2023-07-29T06:17:49;20.00;;;15.55;;
75542;SDS011;64129;53.508;10.476;2023-07-29T06:20:16;21.52;;;16.80;;
75542;SDS011;64129;53.508;10.476;2023-07-29T06:22:43;19.15;;;15.40;;
75542;SDS011;64129;53.508;10.476;2023-07-29T06:25:09;17.13;;;15.25;;
75542;SDS011;64129;53.508;10.476;2023-07-29T06:27:37;16.05;;;14.35;;
75542;SDS011;64129;53.508;10.476;2023-07-29T06:30:04;14.82;;;12.63;;
75542;SDS011;64129;53.508;10.476;2023-07-29T06:32:31;16.27;;;12.10;;
75542;SDS011;64129;53.508;10.476;2023-07-29T06:34:58;13.77;;;10.38;;
75542;SDS011;64129;53.508;10.476;2023-07-29T06:37:25;11.63;;;10.50;;
75542;SDS011;64129;53.508;10.476;2023-07-29T06:39:51;13.45;;;10.52;;
75542;SDS011;64129;53.508;10.476;2023-07-29T06:42:18;13.27;;;10.93;;
75542;SDS011;64129;53.508;10.476;2023-07-29T06:44:44;14.40;;;10.25;;
75542;SDS011;64129;53.508;10.476;2023-07-29T06:47:12;12.30;;;11.00;;
75542;SDS011;64129;53.508;10.476;2023-07-29T06:49:38;11.13;;;9.80;;
75542;SDS011;64129;53.508;10.476;2023-07-29T06:52:05;13.35;;;10.90;;
75542;SDS011;64129;53.508;10.476;2023-07-29T06:54:32;12.30;;;10.70;;
75542;SDS011;64129;53.508;10.476;2023-07-29T06:56:58;12.05;;;10.68;;
75542;SDS011;64129;53.508;10.476;2023-07-29T06:59:25;12.60;;;10.63;;
75542;SDS011;64129;53.508;10.476;2023-07-29T07:01:52;14.90;;;11.48;;
75542;SDS011;64129;53.508;10.476;2023-07-29T07:04:18;11.52;;;9.85;;
75542;SDS011;64129;53.508;10.476;2023-07-29T07:06:45;11.50;;;9.30;;
75542;SDS011;64129;53.508;10.476;2023-07-29T07:09:12;11.02;;;9.60;;
75542;SDS011;64129;53.508;10.476;2023-07-29T07:11:38;11.40;;;10.18;;
75542;SDS011;64129;53.508;10.476;2023-07-29T07:14:05;10.50;;;9.48;;
75542;SDS011;64129;53.508;10.476;2023-07-29T07:16:31;10.75;;;9.35;;
75542;SDS011;64129;53.508;10.476;2023-07-29T07:18:58;9.13;;;8.15;;
75542;SDS011;64129;53.508;10.476;2023-07-29T07:21:24;9.07;;;8.10;;
75542;SDS011;64129;53.508;10.476;2023-07-29T07:23:51;11.25;;;8.40;;
75542;SDS011;64129;53.508;10.476;2023-07-29T07:26:17;9.70;;;8.30;;
75542;SDS011;64129;53.508;10.476;2023-07-29T07:28:44;10.27;;;9.18;;
75542;SDS011;64129;53.508;10.476;2023-07-29T07:31:11;9.68;;;8.73;;
75542;SDS011;64129;53.508;10.476;2023-07-29T07:33:37;10.60;;;9.20;;
75542;SDS011;64129;53.508;10.476;2023-07-29T07:36:04;9.38;;;7.95;;
75542;SDS011;64129;53.508;10.476;2023-07-29T07:38:31;9.65;;;8.73;;
75542;SDS011;64129;53.508;10.476;2023-07-29T07:40:57;12.68;;;9.00;;
75542;SDS011;64129;53.508;10.476;2023-07-29T07:43:24;8.52;;;7.63;;
75542;SDS011;64129;53.508;10.476;2023-07-29T07:45:51;8.98;;;7.60;;
75542;SDS011;64129;53.508;10.476;2023-07-29T07:48:23;8.90;;;8.00;;
75542;SDS011;64129;53.508;10.476;2023-07-29T07:50:50;8.85;;;7.78;;
75542;SDS011;64129;53.508;10.476;2023-07-29T07:53:17;9.95;;;8.25;;
75542;SDS011;64129;53.508;10.476;2023-07-29T07:55:43;8.68;;;7.38;;
75542;SDS011;64129;53.508;10.476;2023-07-29T07:58:10;8.85;;;7.95;;
75542;SDS011;64129;53.508;10.476;2023-07-29T08:00:36;8.60;;;7.78;;
75542;SDS011;64129;53.508;10.476;2023-07-29T08:03:03;7.20;;;6.47;;
75542;SDS011;64129;53.508;10.476;2023-07-29T08:05:30;7.03;;;6.32;;
75542;SDS011;64129;53.508;10.476;2023-07-29T08:07:56;8.30;;;6.88;;
75542;SDS011;64129;53.508;10.476;2023-07-29T08:10:23;7.07;;;6.38;;
75542;SDS011;64129;53.508;10.476;2023-07-29T08:12:50;6.90;;;6.20;;
75542;SDS011;64129;53.508;10.476;2023-07-29T08:15:17;6.88;;;5.72;;
75542;SDS011;64129;53.508;10.476;2023-07-29T08:17:43;9.02;;;7.03;;
75542;SDS011;64129;53.508;10.476;2023-07-29T08:20:12;9.52;;;6.22;;
75542;SDS011;64129;53.508;10.476;2023-07-29T08:22:38;9.05;;;6.78;;
75542;SDS011;64129;53.508;10.476;2023-07-29T08:25:05;7.55;;;6.07;;
75542;SDS011;64129;53.508;10.476;2023-07-29T08:27:33;7.38;;;6.47;;
75542;SDS011;64129;53.508;10.476;2023-07-29T08:30:00;6.45;;;5.63;;
75542;SDS011;64129;53.508;10.476;2023-07-29T08:32:27;7.32;;;5.88;;
75542;SDS011;64129;53.508;10.476;2023-07-29T08:34:53;6.53;;;5.75;;
75542;SDS011;64129;53.508;10.476;2023-07-29T08:37:20;7.07;;;6.38;;
75542;SDS011;64129;53.508;10.476;2023-07-29T08:39:46;6.35;;;5.47;;
75542;SDS011;64129;53.508;10.476;2023-07-29T08:42:13;6.85;;;5.43;;
75542;SDS011;64129;53.508;10.476;2023-07-29T08:44:43;5.20;;;4.70;;
75542;SDS011;64129;53.508;10.476;2023-07-29T08:47:10;9.98;;;5.18;;
75542;SDS011;64129;53.508;10.476;2023-07-29T08:49:39;4.75;;;4.03;;
75542;SDS011;64129;53.508;10.476;2023-07-29T08:52:07;4.35;;;3.90;;
75542;SDS011;64129;53.508;10.476;2023-07-29T08:54:35;4.40;;;4.10;;
75542;SDS011;64129;53.508;10.476;2023-07-29T08:57:03;6.28;;;4.53;;
75542;SDS011;64129;53.508;10.476;2023-07-29T08:59:30;5.13;;;4.57;;
75542;SDS011;64129;53.508;10.476;2023-07-29T09:01:57;4.60;;;4.20;;
75542;SDS011;64129;53.508;10.476;2023-07-29T09:04:24;4.30;;;3.90;;
75542;SDS011;64129;53.508;10.476;2023-07-29T09:06:51;3.53;;;3.03;;
75542;SDS011;64129;53.508;10.476;2023-07-29T09:09:20;3.58;;;3.28;;
75542;SDS011;64129;53.508;10.476;2023-07-29T09:11:47;3.55;;;3.25;;
75542;SDS011;64129;53.508;10.476;2023-07-29T09:14:14;4.18;;;3.78;;
75542;SDS011;64129;53.508;10.476;2023-07-29T09:16:41;4.07;;;3.78;;
75542;SDS011;64129;53.508;10.476;2023-07-29T09:19:08;4.68;;;4.07;;
75542;SDS011;64129;53.508;10.476;2023-07-29T09:21:38;4.45;;;4.05;;
75542;SDS011;64129;53.508;10.476;2023-07-29T09:24:05;4.15;;;3.85;;
75542;SDS011;64129;53.508;10.476;2023-07-29T09:26:33;4.90;;;4.50;;
75542;SDS011;64129;53.508;10.476;2023-07-29T09:29:01;4.32;;;3.92;;
75542;SDS011;64129;53.508;10.476;2023-07-29T09:31:28;4.90;;;4.45;;
75542;SDS011;64129;53.508;10.476;2023-07-29T09:33:59;4.45;;;4.13;;
75542;SDS011;64129;53.508;10.476;2023-07-29T09:36:27;4.53;;;4.13;;
75542;SDS011;64129;53.508;10.476;2023-07-29T09:38:54;6.07;;;4.32;;
75542;SDS011;64129;53.508;10.476;2023-07-29T09:41:22;4.80;;;4.40;;
75542;SDS011;64129;53.508;10.476;2023-07-29T09:43:56;4.20;;;3.80;;
75542;SDS011;64129;53.508;10.476;2023-07-29T09:46:24;4.55;;;4.15;;
75542;SDS011;64129;53.508;10.476;2023-07-29T09:48:53;4.38;;;3.97;;
75542;SDS011;64129;53.508;10.476;2023-07-29T09:51:22;4.20;;;3.80;;
75542;SDS011;64129;53.508;10.476;2023-07-29T09:53:50;4.75;;;4.35;;
75542;SDS011;64129;53.508;10.476;2023-07-29T09:56:17;4.57;;;4.18;;
75542;SDS011;64129;53.508;10.476;2023-07-29T09:58:44;4.93;;;4.07;;
75542;SDS011;64129;53.508;10.476;2023-07-29T10:01:14;4.82;;;4.43;;
75542;SDS011;64129;53.508;10.476;2023-07-29T10:03:41;5.20;;;4.53;;
75542;SDS011;64129;53.508;10.476;2023-07-29T10:08:35;4.72;;;4.30;;
75542;SDS011;64129;53.508;10.476;2023-07-29T10:11:02;5.20;;;4.68;;
75542;SDS011;64129;53.508;10.476;2023-07-29T10:13:28;5.15;;;4.70;;
75542;SDS011;64129;53.508;10.476;2023-07-29T10:15:55;6.50;;;4.60;;
75542;SDS011;64129;53.508;10.476;2023-07-29T10:18:22;5.13;;;4.63;;
75542;SDS011;64129;53.508;10.476;2023-07-29T10:23:20;5.53;;;5.03;;
75542;SDS011;64129;53.508;10.476;2023-07-29T10:25:57;5.13;;;4.68;;
75542;SDS011;64129;53.508;10.476;2023-07-29T10:28:29;5.82;;;4.25;;
75542;SDS011;64129;53.508;10.476;2023-07-29T10:30:57;4.53;;;4.13;;
75542;SDS011;64129;53.508;10.476;2023-07-29T10:33:25;5.43;;;4.93;;
75542;SDS011;64129;53.508;10.476;2023-07-29T10:35:54;4.90;;;4.50;;
75542;SDS011;64129;53.508;10.476;2023-07-29T10:38:22;5.45;;;4.95;;
75542;SDS011;64129;53.508;10.476;2023-07-29T10:40:51;5.72;;;5.22;;
75542;SDS011;64129;53.508;10.476;2023-07-29T10:43:26;4.88;;;4.43;;
75542;SDS011;64129;53.508;10.476;2023-07-29T10:46:14;5.30;;;4.43;;
75542;SDS011;64129;53.508;10.476;2023-07-29T10:48:43;4.78;;;4.30;;
75542;SDS011;64129;53.508;10.476;2023-07-29T10:53:56;4.68;;;4.25;;
75542;SDS011;64129;53.508;10.476;2023-07-29T10:56:31;4.47;;;4.07;;
75542;SDS011;64129;53.508;10.476;2023-07-29T10:59:22;4.25;;;3.75;;
75542;SDS011;64129;53.508;10.476;2023-07-29T11:01:57;5.03;;;4.07;;
75542;SDS011;64129;53.508;10.476;2023-07-29T11:04:27;4.00;;;3.70;;
75542;SDS011;64129;53.508;10.476;2023-07-29T11:17:35;3.53;;;3.17;;
75542;SDS011;64129;53.508;10.476;2023-07-29T11:20:07;3.20;;;2.95;;
75542;SDS011;64129;53.508;10.476;2023-07-29T11:22:35;3.00;;;2.80;;
75542;SDS011;64129;53.508;10.476;2023-07-29T11:27:29;3.03;;;2.80;;
75542;SDS011;64129;53.508;10.476;2023-07-29T11:29:56;4.35;;;3.33;;
75542;SDS011;64129;53.508;10.476;2023-07-29T11:32:27;3.92;;;3.08;;
75542;SDS011;64129;53.508;10.476;2023-07-29T11:34:53;3.65;;;3.03;;
75542;SDS011;64129;53.508;10.476;2023-07-29T11:37:20;5.03;;;2.85;;
75542;SDS011;64129;53.508;10.476;2023-07-29T11:39:47;3.00;;;2.72;;
75542;SDS011;64129;53.508;10.476;2023-07-29T11:42:14;3.38;;;2.65;;
75542;SDS011;64129;53.508;10.476;2023-07-29T11:44:41;4.47;;;3.03;;
75542;SDS011;64129;53.508;10.476;2023-07-29T11:47:08;3.63;;;2.90;;
75542;SDS011;64129;53.508;10.476;2023-07-29T11:49:37;4.55;;;2.65;;
75542;SDS011;64129;53.508;10.476;2023-07-29T11:52:08;3.03;;;2.50;;
75542;SDS011;64129;53.508;10.476;2023-07-29T11:54:36;2.92;;;2.63;;
75542;SDS011;64129;53.508;10.476;2023-07-29T11:57:07;2.75;;;2.20;;
75542;SDS011;64129;53.508;10.476;2023-07-29T11:59:35;2.50;;;2.30;;
75542;SDS011;64129;53.508;10.476;2023-07-29T12:02:21;2.53;;;2.33;;
75542;SDS011;64129;53.508;10.476;2023-07-29T12:04:51;5.53;;;2.40;;
75542;SDS011;64129;53.508;10.476;2023-07-29T12:07:18;5.22;;;2.38;;
75542;SDS011;64129;53.508;10.476;2023-07-29T12:09:45;3.10;;;2.67;;
75542;SDS011;64129;53.508;10.476;2023-07-29T12:12:12;2.47;;;2.28;;
75542;SDS011;64129;53.508;10.476;2023-07-29T12:14:42;2.80;;;2.60;;
75542;SDS011;64129;53.508;10.476;2023-07-29T12:17:15;3.20;;;2.60;;
75542;SDS011;64129;53.508;10.476;2023-07-29T12:19:42;3.05;;;2.58;;
75542;SDS011;64129;53.508;10.476;2023-07-29T12:22:09;3.58;;;2.65;;
75542;SDS011;64129;53.508;10.476;2023-07-29T12:24:37;4.30;;;2.45;;
75542;SDS011;64129;53.508;10.476;2023-07-29T12:27:05;2.88;;;2.17;;
75542;SDS011;64129;53.508;10.476;2023-07-29T12:29:39;2.45;;;2.25;;
75542;SDS011;64129;53.508;10.476;2023-07-29T12:32:07;2.50;;;2.30;;
75542;SDS011;64129;53.508;10.476;2023-07-29T12:34:35;2.70;;;2.42;;
75542;SDS011;64129;53.508;10.476;2023-07-29T12:37:03;2.78;;;2.58;;
75542;SDS011;64129;53.508;10.476;2023-07-29T12:39:35;2.63;;;2.22;;
75542;SDS011;64129;53.508;10.476;2023-07-29T12:42:05;2.67;;;2.47;;
75542;SDS011;64129;53.508;10.476;2023-07-29T12:44:33;5.03;;;2.47;;
75542;SDS011;64129;53.508;10.476;2023-07-29T12:47:01;2.75;;;2.35;;
75542;SDS011;64129;53.508;10.476;2023-07-29T12:49:30;3.58;;;2.65;;
75542;SDS011;64129;53.508;10.476;2023-07-29T12:51:57;2.85;;;2.20;;
75542;SDS011;64129;53.508;10.476;2023-07-29T12:54:24;3.25;;;2.63;;
75542;SDS011;64129;53.508;10.476;2023-07-29T12:56:51;3.45;;;2.50;;
75542;SDS011;64129;53.508;10.476;2023-07-29T12:59:18;2.83;;;2.50;;
75542;SDS011;64129;53.508;10.476;2023-07-29T13:01:44;2.67;;;2.45;;
75542;SDS011;64129;53.508;10.476;2023-07-29T13:04:11;3.72;;;2.72;;
75542;SDS011;64129;53.508;10.476;2023-07-29T13:06:38;3.13;;;2.83;;
75542;SDS011;64129;53.508;10.476;2023-07-29T13:09:04;3.45;;;2.78;;
75542;SDS011;64129;53.508;10.476;2023-07-29T13:11:32;6.68;;;2.55;;
75542;SDS011;64129;53.508;10.476;2023-07-29T13:13:59;2.85;;;2.50;;
75542;SDS011;64129;53.508;10.476;2023-07-29T13:16:27;2.53;;;2.33;;
75542;SDS011;64129;53.508;10.476;2023-07-29T13:18:54;2.80;;;2.60;;
75542;SDS011;64129;53.508;10.476;2023-07-29T13:21:22;2.75;;;2.55;;
75542;SDS011;64129;53.508;10.476;2023-07-29T13:23:48;3.05;;;2.83;;
75542;SDS011;64129;53.508;10.476;2023-07-29T13:26:15;2.47;;;1.98;;
75542;SDS011;64129;53.508;10.476;2023-07-29T13:28:42;3.42;;;2.38;;
75542;SDS011;64129;53.508;10.476;2023-07-29T13:31:08;1.88;;;1.77;;
75542;SDS011;64129;53.508;10.476;2023-07-29T13:33:35;2.33;;;1.80;;
75542;SDS011;64129;53.508;10.476;2023-07-29T13:36:01;2.35;;;1.80;;
75542;SDS011;64129;53.508;10.476;2023-07-29T13:38:31;4.40;;;1.90;;
75542;SDS011;64129;53.508;10.476;2023-07-29T13:40:57;1.85;;;1.48;;
75542;SDS011;64129;53.508;10.476;2023-07-29T13:43:25;2.60;;;1.60;;
75542;SDS011;64129;53.508;10.476;2023-07-29T13:45:51;2.25;;;1.52;;
75542;SDS011;64129;53.508;10.476;2023-07-29T13:48:18;1.98;;;1.73;;
75542;SDS011;64129;53.508;10.476;2023-07-29T13:50:46;2.63;;;1.73;;
75542;SDS011;64129;53.508;10.476;2023-07-29T13:53:12;1.63;;;1.52;;
75542;SDS011;64129;53.508;10.476;2023-07-29T13:55:39;2.65;;;1.83;;
75542;SDS011;64129;53.508;10.476;2023-07-29T13:58:05;1.77;;;1.67;;
75542;SDS011;64129;53.508;10.476;2023-07-29T14:00:32;1.95;;;1.58;;
75542;SDS011;64129;53.508;10.476;2023-07-29T14:02:59;2.65;;;1.77;;
75542;SDS011;64129;53.508;10.476;2023-07-29T14:05:25;2.08;;;1.75;;
75542;SDS011;64129;53.508;10.476;2023-07-29T14:07:52;1.60;;;1.50;;
75542;SDS011;64129;53.508;10.476;2023-07-29T14:10:18;2.10;;;1.60;;
75542;SDS011;64129;53.508;10.476;2023-07-29T14:12:45;2.20;;;1.70;;
75542;SDS011;64129;53.508;10.476;2023-07-29T14:15:11;1.88;;;1.42;;
75542;SDS011;64129;53.508;10.476;2023-07-29T14:17:38;1.90;;;1.70;;
75542;SDS011;64129;53.508;10.476;2023-07-29T14:20:05;1.63;;;1.52;;
75542;SDS011;64129;53.508;10.476;2023-07-29T14:22:32;2.10;;;1.85;;
75542;SDS011;64129;53.508;10.476;2023-07-29T14:27:26;1.70;;;1.45;;
75542;SDS011;64129;53.508;10.476;2023-07-29T14:29:53;2.05;;;1.80;;
75542;SDS011;64129;53.508;10.476;2023-07-29T14:32:20;2.83;;;1.75;;
75542;SDS011;64129;53.508;10.476;2023-07-29T14:34:48;2.85;;;1.90;;
75542;SDS011;64129;53.508;10.476;2023-07-29T14:37:15;1.80;;;1.70;;
75542;SDS011;64129;53.508;10.476;2023-07-29T14:39:41;2.13;;;1.80;;
75542;SDS011;64129;53.508;10.476;2023-07-29T14:42:08;2.30;;;1.63;;
75542;SDS011;64129;53.508;10.476;2023-07-29T14:44:34;1.90;;;1.63;;
75542;SDS011;64129;53.508;10.476;2023-07-29T14:47:01;4.40;;;1.90;;
75542;SDS011;64129;53.508;10.476;2023-07-29T14:49:28;3.92;;;1.98;;
75542;SDS011;64129;53.508;10.476;2023-07-29T14:51:54;2.08;;;1.80;;
75542;SDS011;64129;53.508;10.476;2023-07-29T14:54:21;1.45;;;1.33;;
75542;SDS011;64129;53.508;10.476;2023-07-29T14:56:48;3.15;;;1.63;;
75542;SDS011;64129;53.508;10.476;2023-07-29T14:59:14;2.08;;;1.73;;
75542;SDS011;64129;53.508;10.476;2023-07-29T15:01:41;1.60;;;1.50;;
75542;SDS011;64129;53.508;10.476;2023-07-29T15:04:08;1.55;;;1.45;;
75542;SDS011;64129;53.508;10.476;2023-07-29T15:06:34;3.88;;;1.60;;
75542;SDS011;64129;53.508;10.476;2023-07-29T15:09:01;2.30;;;1.50;;
75542;SDS011;64129;53.508;10.476;2023-07-29T15:11:28;2.88;;;1.60;;